Time;durP1;ratioP1;P1;durP2;ratioP2;P2;SDS_P1;SDS_P2;PMS_P1;PMS_P2;Temp;Humidity;BMP_temperature;BMP_pressure;BME280_temperature;BME280_humidity;BME280_pressure;Samples;Min_cycle;Max_cycle;Signal;HPM_P1;HPM_P2
2022/07/15 00:02:18;;;;;;;3.75;1.40;;;21.10;65.40;;;;;;5075519;28;20024;-89
2022/07/15 00:04:44;;;;;;;4.55;1.70;;;21.00;65.60;;;;;;5074883;28;20492;-90
2022/07/15 00:07:09;;;;;;;2.83;1.50;;;21.00;66.00;;;;;;5057444;28;20031;-89
2022/07/15 00:12:19;;;;;;;9.23;2.08;;;20.90;67.10;;;;;;5075163;28;20094;-89
2022/07/15 00:14:45;;;;;;;3.55;1.70;;;20.80;67.40;;;;;;5057113;28;20048;-89
2022/07/15 00:17:11;;;;;;;5.50;1.95;;;20.70;67.60;;;;;;5057159;28;20056;-89
2022/07/15 00:19:37;;;;;;;5.85;1.92;;;20.70;68.00;;;;;;5075130;28;20047;-88
2022/07/15 00:22:02;;;;;;;3.25;1.90;;;20.70;68.40;;;;;;5056817;28;20451;-89
2022/07/15 00:24:29;;;;;;;4.30;1.70;;;20.50;68.70;;;;;;5057034;28;20036;-90
2022/07/15 00:26:55;;;;;;;3.70;1.60;;;20.40;69.10;;;;;;5069618;28;20546;-89
2022/07/15 00:29:20;;;;;;;3.67;1.65;;;20.50;69.20;;;;;;5054033;28;20077;-89
2022/07/15 00:31:46;;;;;;;4.32;1.85;;;20.50;69.10;;;;;;5056232;28;20032;-89
2022/07/15 00:34:12;;;;;;;5.85;1.80;;;20.50;69.00;;;;;;5056969;28;20024;-89
2022/07/15 00:36:38;;;;;;;2.90;1.55;;;20.50;68.90;;;;;;5056812;28;20069;-89
2022/07/15 00:39:04;;;;;;;1.80;1.60;;;20.50;68.90;;;;;;5057006;28;20020;-89
2022/07/15 00:41:41;;;;;;;4.53;1.88;;;20.40;69.30;;;;;;5056913;28;20381;-89
2022/07/15 00:44:07;;;;;;;2.28;1.73;;;20.40;69.30;;;;;;5044909;28;20060;-90
2022/07/15 00:46:35;;;;;;;3.92;2.03;;;20.40;69.40;;;;;;5072066;28;20037;-90
2022/07/15 00:49:04;;;;;;;3.78;1.65;;;20.40;69.70;;;;;;5056443;28;20028;-90
2022/07/15 00:51:39;;;;;;;5.47;2.35;;;20.30;69.80;;;;;;5056436;28;20032;-89
2022/07/15 00:54:07;;;;;;;4.10;1.60;;;20.30;70.10;;;;;;5073512;28;20051;-90
2022/07/15 00:56:38;;;;;;;3.85;2.00;;;20.30;70.30;;;;;;5040923;28;20041;-89
2022/07/15 00:59:05;;;;;;;3.63;1.50;;;20.20;70.50;;;;;;5044777;28;20481;-89
2022/07/15 01:01:32;;;;;;;9.13;1.85;;;20.30;70.50;;;;;;5056390;28;20307;-89
2022/07/15 01:03:59;;;;;;;4.03;1.60;;;20.20;70.50;;;;;;5052829;28;20029;-89
2022/07/15 01:06:26;;;;;;;5.07;2.03;;;20.20;70.90;;;;;;5053597;28;20033;-89
2022/07/15 01:08:52;;;;;;;4.13;1.85;;;20.00;71.20;;;;;;5025971;28;20036;-87
2022/07/15 01:11:18;;;;;;;5.68;2.00;;;20.00;71.40;;;;;;5057565;28;20021;-87
2022/07/15 01:13:44;;;;;;;3.58;1.58;;;20.00;71.40;;;;;;5056697;28;20116;-88
2022/07/15 01:16:09;;;;;;;5.90;1.60;;;20.00;71.70;;;;;;5073748;28;20084;-87
2022/07/15 01:18:35;;;;;;;5.70;2.00;;;20.00;71.80;;;;;;5056744;28;20047;-87
2022/07/15 01:21:00;;;;;;;2.97;1.40;;;20.00;72.30;;;;;;5056528;28;20021;-87
2022/07/15 01:23:26;;;;;;;3.95;1.75;;;19.80;72.20;;;;;;5056499;28;20359;-87
2022/07/15 01:25:53;;;;;;;3.75;1.80;;;19.80;72.50;;;;;;5055987;28;20115;-88
2022/07/15 01:28:19;;;;;;;2.90;1.70;;;19.80;72.70;;;;;;5058289;28;20170;-88
2022/07/15 01:30:45;;;;;;;4.13;2.28;;;19.60;72.60;;;;;;5069288;28;20493;-88
2022/07/15 01:33:11;;;;;;;3.13;1.98;;;19.60;72.80;;;;;;5047580;28;20110;-88
2022/07/15 01:35:37;;;;;;;3.67;2.15;;;19.50;72.90;;;;;;5072811;28;20104;-88
2022/07/15 01:38:02;;;;;;;2.35;1.70;;;19.40;73.10;;;;;;5055073;28;20114;-89
2022/07/15 01:40:28;;;;;;;4.68;1.85;;;19.40;73.20;;;;;;5056376;28;20032;-88
2022/07/15 01:42:54;;;;;;;6.15;2.33;;;19.30;73.50;;;;;;5073638;28;20103;-88
2022/07/15 01:45:19;;;;;;;2.33;2.00;;;19.20;73.60;;;;;;5056278;28;20029;-88
2022/07/15 01:47:48;;;;;;;4.10;2.33;;;19.20;73.90;;;;;;5048182;28;20382;-89
2022/07/15 01:50:14;;;;;;;4.72;2.00;;;19.10;74.20;;;;;;5055774;28;20127;-87
2022/07/15 01:52:40;;;;;;;3.20;2.08;;;19.10;75.00;;;;;;5055821;28;20017;-88
2022/07/15 01:55:08;;;;;;;5.90;2.05;;;19.10;74.40;;;;;;5055447;28;20020;-88
2022/07/15 01:57:33;;;;;;;2.60;2.10;;;19.10;74.40;;;;;;5055510;28;20040;-88
2022/07/15 01:59:59;;;;;;;6.72;2.05;;;19.10;74.30;;;;;;5055168;28;20029;-88
2022/07/15 02:02:25;;;;;;;2.80;1.80;;;19.00;74.40;;;;;;5055672;28;20491;-89
2022/07/15 02:04:51;;;;;;;4.47;2.40;;;18.90;74.60;;;;;;5055701;28;20021;-88
2022/07/15 02:07:16;;;;;;;4.15;2.20;;;18.90;74.70;;;;;;5056132;28;20170;-88
2022/07/15 02:09:42;;;;;;;3.55;1.77;;;18.90;74.50;;;;;;5055989;28;20466;-89
2022/07/15 02:12:08;;;;;;;5.13;2.10;;;18.90;74.60;;;;;;5073226;28;20033;-87
2022/07/15 02:14:34;;;;;;;3.50;2.15;;;18.90;74.50;;;;;;5055879;28;20032;-88
2022/07/15 02:17:00;;;;;;;6.18;2.10;;;18.80;74.60;;;;;;5073361;28;20067;-88
2022/07/15 02:19:26;;;;;;;6.30;2.30;;;18.70;74.70;;;;;;5055974;28;20427;-88
2022/07/15 02:21:52;;;;;;;4.35;1.90;;;18.70;74.90;;;;;;5072869;28;20477;-89
2022/07/15 02:24:20;;;;;;;2.45;1.60;;;18.60;74.70;;;;;;5073280;28;20025;-88
2022/07/15 02:26:48;;;;;;;3.75;1.70;;;18.70;74.50;;;;;;5055037;28;20051;-90
2022/07/15 02:29:14;;;;;;;3.45;1.90;;;18.70;74.30;;;;;;5055523;28;20028;-88
2022/07/15 02:31:40;;;;;;;3.20;2.05;;;18.60;74.20;;;;;;5055572;28;20063;-88
2022/07/15 02:34:06;;;;;;;5.15;2.00;;;18.60;74.40;;;;;;5072954;28;20048;-88
2022/07/15 02:36:32;;;;;;;3.45;1.73;;;18.60;74.40;;;;;;5073974;28;20454;-88
2022/07/15 02:38:57;;;;;;;3.83;2.45;;;18.60;74.30;;;;;;5055616;28;20021;-88
2022/07/15 02:41:23;;;;;;;6.95;2.47;;;18.60;74.50;;;;;;5056382;28;20028;-88
2022/07/15 02:43:49;;;;;;;5.25;2.10;;;18.60;74.40;;;;;;5055310;28;20032;-88
2022/07/15 02:46:15;;;;;;;4.97;1.63;;;18.60;74.50;;;;;;5055673;28;20033;-88
2022/07/15 02:48:41;;;;;;;4.78;1.98;;;18.50;74.80;;;;;;5073868;28;20031;-88
2022/07/15 02:51:07;;;;;;;10.05;2.20;;;18.50;75.00;;;;;;5059143;28;20032;-88
2022/07/15 02:53:34;;;;;;;2.70;1.80;;;18.50;75.00;;;;;;5059265;28;20058;-88
2022/07/15 02:56:00;;;;;;;4.40;1.83;;;18.50;75.10;;;;;;5058734;28;20029;-88
2022/07/15 02:58:28;;;;;;;3.35;2.08;;;18.50;75.20;;;;;;5076981;28;20039;-88
2022/07/15 03:00:54;;;;;;;5.85;2.22;;;18.50;75.20;;;;;;5076052;28;20558;-88
2022/07/15 03:03:19;;;;;;;3.97;1.80;;;18.50;75.40;;;;;;5058835;28;20020;-88
2022/07/15 03:05:45;;;;;;;6.28;2.45;;;18.50;75.50;;;;;;5058889;28;20078;-90
2022/07/15 03:08:11;;;;;;;2.50;1.80;;;18.50;75.60;;;;;;5058701;28;20033;-88
2022/07/15 03:10:37;;;;;;;3.53;2.15;;;18.40;75.90;;;;;;5058969;28;20108;-87
2022/07/15 03:13:03;;;;;;;5.15;2.00;;;18.40;76.10;;;;;;5058164;28;20062;-88
2022/07/15 03:15:29;;;;;;;4.95;2.03;;;18.40;76.40;;;;;;5058678;28;20107;-87
2022/07/15 03:17:54;;;;;;;3.50;2.00;;;18.40;76.30;;;;;;5076104;28;20401;-87
2022/07/15 03:20:20;;;;;;;3.42;2.30;;;18.40;76.40;;;;;;5076295;28;20146;-88
2022/07/15 03:22:45;;;;;;;5.13;2.03;;;18.30;76.60;;;;;;5076176;28;20055;-88
2022/07/15 03:25:11;;;;;;;4.30;2.15;;;18.10;77.20;;;;;;5076358;28;20028;-87
2022/07/15 03:27:37;;;;;;;6.22;2.08;;;18.10;77.90;;;;;;5076288;28;20039;-87
2022/07/15 03:30:03;;;;;;;5.07;2.55;;;18.10;78.30;;;;;;5076179;28;20347;-87
2022/07/15 03:32:29;;;;;;;5.25;2.33;;;18.10;78.30;;;;;;5058571;28;20027;-88
2022/07/15 03:34:57;;;;;;;4.28;2.60;;;18.10;78.00;;;;;;5057770;28;20024;-87
2022/07/15 03:37:23;;;;;;;3.40;2.10;;;18.10;78.10;;;;;;5057944;28;20035;-87
2022/07/15 03:39:48;;;;;;;3.47;2.25;;;18.20;77.80;;;;;;5058247;28;20108;-88
2022/07/15 03:42:14;;;;;;;3.63;2.30;;;18.20;77.60;;;;;;5058436;28;20181;-87
2022/07/15 03:44:40;;;;;;;6.13;2.42;;;18.30;77.60;;;;;;5058712;28;20462;-87
2022/07/15 03:47:05;;;;;;;6.05;2.60;;;18.30;77.40;;;;;;5075095;28;20036;-87
2022/07/15 03:49:31;;;;;;;6.47;2.10;;;18.40;77.30;;;;;;5058196;28;20547;-87
2022/07/15 03:51:56;;;;;;;6.55;2.20;;;18.30;77.60;;;;;;5074648;28;20016;-88
2022/07/15 03:54:22;;;;;;;4.53;2.38;;;18.30;77.90;;;;;;5057469;28;20431;-88
2022/07/15 03:56:48;;;;;;;5.90;2.63;;;18.40;77.90;;;;;;5074360;28;20050;-89
2022/07/15 03:59:14;;;;;;;3.13;2.08;;;18.40;77.80;;;;;;5075303;28;20028;-88
2022/07/15 04:01:40;;;;;;;3.80;2.25;;;18.30;78.00;;;;;;5056788;28;20021;-87
2022/07/15 04:04:06;;;;;;;4.63;2.30;;;18.40;77.80;;;;;;5056687;28;20110;-88
2022/07/15 04:06:32;;;;;;;3.13;1.90;;;18.40;77.50;;;;;;5057813;28;20036;-88
2022/07/15 04:08:58;;;;;;;3.15;1.98;;;18.40;77.30;;;;;;5057658;28;20059;-88
2022/07/15 04:11:24;;;;;;;5.75;2.10;;;18.50;77.40;;;;;;5057819;28;20465;-88
2022/07/15 04:13:50;;;;;;;3.40;2.10;;;18.50;77.40;;;;;;5056748;28;20111;-87
2022/07/15 04:16:16;;;;;;;2.97;1.63;;;18.50;77.30;;;;;;5056825;28;20386;-87
2022/07/15 04:18:42;;;;;;;6.22;2.20;;;18.60;77.20;;;;;;5057019;28;20056;-88
2022/07/15 04:21:08;;;;;;;5.55;2.03;;;18.50;77.10;;;;;;5056282;28;20450;-87
2022/07/15 04:23:33;;;;;;;4.20;1.60;;;18.50;77.30;;;;;;5075247;28;20450;-87
2022/07/15 04:25:59;;;;;;;7.13;1.85;;;18.60;77.10;;;;;;5085820;28;20031;-87
2022/07/15 04:28:26;;;;;;;4.93;1.98;;;18.60;77.00;;;;;;5077705;28;20090;-88
2022/07/15 04:30:52;;;;;;;3.70;1.92;;;18.60;76.80;;;;;;5076765;28;20035;-87
2022/07/15 04:33:19;;;;;;;6.22;1.90;;;18.60;76.60;;;;;;5077355;28;20025;-87
2022/07/15 04:35:44;;;;;;;6.28;1.90;;;18.70;76.70;;;;;;5094890;28;20031;-89
2022/07/15 04:38:10;;;;;;;3.50;1.98;;;18.70;76.60;;;;;;5094676;28;20024;-87
2022/07/15 04:40:39;;;;;;;6.13;2.13;;;18.70;76.70;;;;;;5077098;28;20053;-87
2022/07/15 04:43:05;;;;;;;3.25;1.60;;;18.70;76.90;;;;;;5076815;28;20051;-87
2022/07/15 04:45:31;;;;;;;6.13;1.83;;;18.70;77.60;;;;;;5076871;28;20031;-87
2022/07/15 04:47:56;;;;;;;8.68;2.22;;;18.60;77.90;;;;;;5076556;28;20387;-87
2022/07/15 04:53:06;;;;;;;6.85;1.80;;;18.60;78.00;;;;;;5059352;28;20066;-87
2022/07/15 04:55:32;;;;;;;4.95;2.13;;;18.60;78.20;;;;;;5056909;28;20390;-87
2022/07/15 04:57:57;;;;;;;3.10;1.70;;;18.70;79.00;;;;;;5073900;28;20428;-87
2022/07/15 05:00:23;;;;;;;4.03;1.80;;;18.60;77.90;;;;;;5040341;28;20033;-86
2022/07/15 05:02:49;;;;;;;3.60;1.52;;;18.70;78.10;;;;;;5036326;28;20080;-87
2022/07/15 05:05:15;;;;;;;5.63;1.90;;;18.70;77.80;;;;;;5054459;28;20025;-87
2022/07/15 05:07:41;;;;;;;6.72;1.92;;;18.70;77.80;;;;;;5036882;28;20060;-87
2022/07/15 05:10:08;;;;;;;2.38;1.50;;;18.70;77.50;;;;;;5036477;28;20542;-87
2022/07/15 05:12:34;;;;;;;3.97;2.00;;;18.70;77.60;;;;;;5054552;28;20064;-86
2022/07/15 05:15:00;;;;;;;3.80;1.77;;;18.70;77.60;;;;;;5055922;28;20027;-86
2022/07/15 05:17:26;;;;;;;6.97;1.88;;;18.70;77.80;;;;;;5074215;28;20374;-87
2022/07/15 05:19:52;;;;;;;5.60;2.05;;;18.60;77.50;;;;;;5056125;28;20089;-87
2022/07/15 05:22:18;;;;;;;3.88;1.77;;;18.60;77.20;;;;;;5074308;28;20400;-87
2022/07/15 05:24:45;;;;;;;2.80;1.58;;;18.60;77.30;;;;;;5074028;28;20029;-90
2022/07/15 05:27:11;;;;;;;4.50;2.20;;;18.60;77.30;;;;;;5074226;28;20033;-87
2022/07/15 05:29:37;;;;;;;4.55;2.17;;;18.70;77.40;;;;;;5055953;28;20111;-86
2022/07/15 05:32:03;;;;;;;6.25;2.03;;;18.70;77.10;;;;;;5073576;28;20055;-87
2022/07/15 05:34:28;;;;;;;4.70;1.98;;;18.70;77.10;;;;;;5056361;28;20021;-86
2022/07/15 05:36:54;;;;;;;5.55;1.90;;;18.70;77.00;;;;;;5055701;28;20028;-88
2022/07/15 05:39:19;;;;;;;5.47;2.20;;;18.80;77.50;;;;;;5056103;28;20067;-87
2022/07/15 05:41:46;;;;;;;2.85;1.85;;;18.80;77.40;;;;;;5073866;28;20029;-89
2022/07/15 05:44:11;;;;;;;3.72;1.70;;;18.80;77.20;;;;;;5055810;28;20107;-87
2022/07/15 05:46:37;;;;;;;5.82;2.03;;;18.90;77.90;;;;;;5054724;28;20119;-87
2022/07/15 05:49:02;;;;;;;8.10;1.80;;;18.90;76.90;;;;;;5053072;28;20031;-88
2022/07/15 05:51:28;;;;;;;5.72;1.85;;;18.90;77.10;;;;;;5055366;28;20063;-86
2022/07/15 05:53:54;;;;;;;7.28;2.05;;;18.90;78.00;;;;;;5055272;28;20507;-88
2022/07/15 05:56:21;;;;;;;8.10;2.50;;;18.80;77.30;;;;;;5072984;28;20430;-88
2022/07/15 05:58:47;;;;;;;7.53;2.05;;;18.90;77.10;;;;;;5055129;28;20419;-88
2022/07/15 06:01:13;;;;;;;6.63;1.98;;;18.90;76.60;;;;;;5055616;28;20024;-88
2022/07/15 06:03:39;;;;;;;3.50;2.03;;;18.90;76.50;;;;;;5054871;28;20036;-88
2022/07/15 06:06:06;;;;;;;5.22;1.75;;;18.90;76.70;;;;;;5054678;28;20505;-88
2022/07/15 06:08:32;;;;;;;5.88;2.00;;;19.00;76.60;;;;;;5055369;28;20029;-87
2022/07/15 06:10:57;;;;;;;4.57;2.00;;;19.10;76.70;;;;;;5054358;28;20057;-88
2022/07/15 06:13:23;;;;;;;5.68;1.83;;;19.10;76.60;;;;;;5053196;28;20144;-88
2022/07/15 06:15:49;;;;;;;5.38;2.10;;;19.20;76.20;;;;;;5052402;28;20465;-89
2022/07/15 06:18:15;;;;;;;4.57;1.83;;;19.20;76.20;;;;;;5046011;28;20037;-89
2022/07/15 06:20:40;;;;;;;6.55;2.10;;;19.20;75.80;;;;;;5048323;28;20031;-88
2022/07/15 06:23:06;;;;;;;9.45;2.28;;;19.30;75.90;;;;;;5055748;28;20021;-88
2022/07/15 06:25:31;;;;;;;6.20;2.22;;;19.30;75.60;;;;;;5076539;28;20021;-87
2022/07/15 06:27:57;;;;;;;6.00;2.03;;;19.40;75.80;;;;;;5055142;28;20448;-88
2022/07/15 06:30:23;;;;;;;6.72;2.05;;;19.40;75.70;;;;;;5053146;28;20120;-87
2022/07/15 06:32:48;;;;;;;3.25;1.75;;;19.40;75.30;;;;;;5046846;28;20025;-87
2022/07/15 06:35:14;;;;;;;4.15;1.88;;;19.40;75.60;;;;;;5056788;28;20021;-88
2022/07/15 06:37:40;;;;;;;4.57;1.98;;;19.50;75.40;;;;;;5053263;28;20070;-88
2022/07/15 06:40:07;;;;;;;4.57;1.67;;;19.60;75.40;;;;;;5053020;28;20456;-88
2022/07/15 06:42:32;;;;;;;4.70;1.60;;;19.60;75.00;;;;;;5053107;28;20116;-87
2022/07/15 06:44:58;;;;;;;2.90;1.50;;;19.70;75.00;;;;;;5071535;28;20091;-88
2022/07/15 06:47:24;;;;;;;4.43;1.70;;;19.70;74.50;;;;;;5066803;28;20082;-87
2022/07/15 06:49:50;;;;;;;6.95;1.83;;;19.70;74.40;;;;;;5065171;28;20052;-88
2022/07/15 06:52:16;;;;;;;4.38;1.40;;;19.70;74.50;;;;;;5053020;28;20025;-87
2022/07/15 06:54:42;;;;;;;3.67;1.45;;;19.80;74.40;;;;;;5051535;28;20397;-87
2022/07/15 06:57:08;;;;;;;5.00;1.58;;;19.90;74.00;;;;;;5052683;28;20025;-87
2022/07/15 06:59:34;;;;;;;5.18;1.48;;;19.90;73.70;;;;;;5053181;28;20032;-87
2022/07/15 07:02:00;;;;;;;4.45;1.67;;;19.90;73.60;;;;;;5052803;28;20094;-87
2022/07/15 07:04:26;;;;;;;4.28;1.83;;;20.00;73.10;;;;;;5070032;28;20462;-88
2022/07/15 07:06:52;;;;;;;4.22;1.60;;;20.00;73.00;;;;;;5054195;28;20029;-88
2022/07/15 07:09:18;;;;;;;5.35;1.50;;;20.00;72.80;;;;;;5051877;28;20032;-88
2022/07/15 07:11:44;;;;;;;2.85;1.52;;;20.10;72.90;;;;;;5051536;28;20081;-89
2022/07/15 07:14:09;;;;;;;5.93;1.25;;;20.10;72.30;;;;;;5059258;28;20138;-88
2022/07/15 07:16:35;;;;;;;3.22;1.33;;;20.20;72.00;;;;;;5047802;28;20383;-88
2022/07/15 07:19:01;;;;;;;2.58;1.10;;;20.20;72.00;;;;;;5049453;28;20088;-88
2022/07/15 07:21:27;;;;;;;4.50;1.35;;;20.20;72.00;;;;;;5055931;28;20027;-87
2022/07/15 07:23:53;;;;;;;5.32;1.42;;;20.20;71.30;;;;;;5048997;28;20108;-86
2022/07/15 07:26:19;;;;;;;3.47;1.23;;;20.30;70.30;;;;;;5055371;28;20128;-86
2022/07/15 07:28:45;;;;;;;3.13;1.10;;;20.30;69.80;;;;;;5056424;28;20099;-89
2022/07/15 07:31:12;;;;;;;4.63;1.13;;;20.40;69.80;;;;;;5055142;28;20043;-87
2022/07/15 07:33:39;;;;;;;2.80;1.10;;;20.40;69.10;;;;;;5058038;28;20029;-86
2022/07/15 07:36:06;;;;;;;5.78;1.50;;;20.40;69.00;;;;;;5056770;28;20024;-87
2022/07/15 07:38:33;;;;;;;3.38;1.25;;;20.40;69.00;;;;;;5058573;28;20020;-87
2022/07/15 07:41:00;;;;;;;5.03;1.30;;;20.50;68.50;;;;;;5075268;28;20047;-87
2022/07/15 07:43:27;;;;;;;4.68;1.00;;;20.50;68.20;;;;;;5058250;28;20024;-88
2022/07/15 07:45:53;;;;;;;5.30;1.20;;;20.50;68.70;;;;;;5056721;28;20021;-88
2022/07/15 07:48:19;;;;;;;3.42;1.17;;;20.50;68.40;;;;;;5070190;28;20370;-87
2022/07/15 07:50:46;;;;;;;3.88;1.10;;;20.60;68.00;;;;;;5057769;28;20533;-92
2022/07/15 07:53:11;;;;;;;5.20;1.20;;;20.60;67.50;;;;;;5074835;28;20203;-86
2022/07/15 07:55:38;;;;;;;5.13;1.40;;;20.60;67.20;;;;;;5056600;28;20055;-88
2022/07/15 07:58:04;;;;;;;4.15;1.48;;;20.70;67.30;;;;;;5074397;28;20529;-86
2022/07/15 08:00:30;;;;;;;2.28;1.02;;;20.70;67.70;;;;;;5054239;28;20112;-87
2022/07/15 08:02:58;;;;;;;4.55;1.20;;;20.80;66.90;;;;;;5055822;28;20025;-86
2022/07/15 08:05:24;;;;;;;3.10;0.98;;;20.80;67.20;;;;;;5074026;28;20036;-87
2022/07/15 08:07:50;;;;;;;3.67;1.13;;;20.90;67.00;;;;;;5055897;28;20485;-87
2022/07/15 08:10:19;;;;;;;4.28;1.00;;;20.90;65.90;;;;;;5056525;28;20028;-87
2022/07/15 08:12:45;;;;;;;4.32;1.17;;;20.90;65.00;;;;;;5056477;28;20059;-90
2022/07/15 08:15:12;;;;;;;4.80;1.00;;;21.00;64.80;;;;;;5056546;28;20024;-87
2022/07/15 08:17:40;;;;;;;5.82;1.30;;;21.00;64.80;;;;;;5041554;28;20108;-88
2022/07/15 08:20:09;;;;;;;5.32;0.98;;;21.00;64.50;;;;;;5041695;28;20029;-87
2022/07/15 08:22:36;;;;;;;2.83;1.00;;;21.00;64.40;;;;;;5051452;28;20025;-88
2022/07/15 08:25:02;;;;;;;1.00;0.80;;;21.10;64.30;;;;;;5039458;28;20021;-88
2022/07/15 08:27:28;;;;;;;5.28;0.85;;;21.10;64.30;;;;;;5031356;28;20033;-86
2022/07/15 08:29:55;;;;;;;3.40;0.80;;;21.20;64.30;;;;;;5038454;28;20063;-88
2022/07/15 08:32:21;;;;;;;6.45;1.20;;;21.20;64.30;;;;;;5054854;28;20025;-88
2022/07/15 08:34:47;;;;;;;4.53;1.23;;;21.30;64.30;;;;;;5037043;28;20032;-89
2022/07/15 08:37:13;;;;;;;3.35;0.77;;;21.30;64.30;;;;;;5037410;28;20139;-87
2022/07/15 08:39:39;;;;;;;1.95;1.00;;;21.30;64.40;;;;;;5036855;28;20070;-89
2022/07/15 08:42:05;;;;;;;7.93;1.00;;;21.40;64.60;;;;;;5036264;28;20068;-87
2022/07/15 08:44:32;;;;;;;2.92;0.90;;;21.40;64.60;;;;;;5054070;28;20017;-88
2022/07/15 08:47:03;;;;;;;1.90;0.80;;;21.40;64.30;;;;;;5053153;28;20029;-87
2022/07/15 08:49:31;;;;;;;5.25;1.00;;;21.40;64.20;;;;;;5043452;28;20044;-88
2022/07/15 08:51:59;;;;;;;3.58;1.05;;;21.40;64.70;;;;;;5035929;28;20033;-88
2022/07/15 08:54:26;;;;;;;5.03;0.93;;;21.50;64.40;;;;;;5036936;28;20024;-89
2022/07/15 08:56:52;;;;;;;3.50;0.82;;;21.50;64.40;;;;;;5033111;28;20120;-88
2022/07/15 08:59:18;;;;;;;6.32;1.25;;;21.50;63.80;;;;;;5038277;28;20478;-88
2022/07/15 09:01:46;;;;;;;5.03;0.93;;;21.60;63.40;;;;;;5036547;28;20021;-89
2022/07/15 09:04:12;;;;;;;3.78;1.00;;;21.60;62.50;;;;;;5036177;28;20068;-88
2022/07/15 09:06:40;;;;;;;3.40;1.15;;;21.60;62.70;;;;;;5036420;28;20040;-88
2022/07/15 09:09:28;;;;;;;4.00;1.05;;;21.60;62.60;;;;;;5035696;28;20021;-88
2022/07/15 09:11:56;;;;;;;3.53;1.00;;;21.70;62.70;;;;;;5053757;28;20060;-88
2022/07/15 09:14:22;;;;;;;2.80;1.00;;;21.70;62.70;;;;;;5036391;28;20056;-88
2022/07/15 09:16:47;;;;;;;4.22;1.00;;;21.70;62.10;;;;;;5036500;28;20075;-88
2022/07/15 09:19:13;;;;;;;5.00;0.93;;;21.70;62.60;;;;;;5045946;28;20022;-88
2022/07/15 09:21:42;;;;;;;5.43;1.10;;;21.80;62.60;;;;;;5048540;28;20028;-88
2022/07/15 09:24:18;;;;;;;3.53;1.10;;;21.80;61.90;;;;;;5030078;28;20393;-88
2022/07/15 09:26:44;;;;;;;5.10;0.90;;;21.80;61.30;;;;;;5038930;28;20040;-88
2022/07/15 09:37:59;;;;;;;5.95;1.38;;;22.00;61.80;;;;;;5006635;28;20546;-89
2022/07/15 09:40:25;;;;;;;2.70;0.90;;;22.00;61.90;;;;;;5035871;28;20029;-90
2022/07/15 09:43:06;;;;;;;2.88;0.60;;;22.00;62.00;;;;;;5039028;28;20016;-89
2022/07/15 09:45:35;;;;;;;;;;;22.00;62.20;;;;;;5027306;28;20018;-89
2022/07/15 09:48:15;;;;;;;2.03;0.70;;;22.10;62.30;;;;;;5036598;28;20274;-88
2022/07/15 09:50:41;;;;;;;4.28;1.00;;;22.20;62.30;;;;;;5036529;28;20029;-89
2022/07/15 09:53:14;;;;;;;5.05;1.30;;;22.20;60.80;;;;;;5042190;28;20024;-91
2022/07/15 09:55:43;;;;;;;2.63;0.80;;;22.20;60.60;;;;;;5022413;28;20064;-88
2022/07/15 09:58:24;;;;;;;2.38;0.95;;;22.30;61.70;;;;;;5021237;28;20052;-88
2022/07/15 10:01:03;;;;;;;1.48;0.85;;;22.30;62.10;;;;;;5036695;28;20031;-87
2022/07/15 10:03:31;;;;;;;3.33;0.80;;;22.30;62.10;;;;;;5025210;28;20471;-90
2022/07/15 10:05:59;;;;;;;2.35;0.80;;;22.40;61.30;;;;;;5025828;28;20045;-89
2022/07/15 10:08:26;;;;;;;3.75;0.80;;;22.40;60.80;;;;;;5039541;28;20033;-89
2022/07/15 10:10:54;;;;;;;5.07;1.00;;;22.40;59.80;;;;;;5055504;28;20025;-89
2022/07/15 10:13:43;;;;;;;3.80;0.80;;;22.40;59.60;;;;;;5052462;28;20025;-89
2022/07/15 10:16:11;;;;;;;1.40;0.98;;;22.50;58.90;;;;;;5049004;28;20139;-89
2022/07/15 10:19:09;;;;;;;3.50;1.05;;;22.50;59.30;;;;;;5028180;28;20064;-88
2022/07/15 10:21:53;;;;;;;4.43;1.05;;;22.50;59.10;;;;;;5042778;28;20024;-90
2022/07/15 10:24:44;;;;;;;3.20;0.98;;;22.50;58.90;;;;;;5044580;28;20031;-89
2022/07/15 10:27:16;;;;;;;3.75;1.05;;;22.50;58.90;;;;;;5036378;28;20033;-89
2022/07/15 10:29:42;;;;;;;3.05;0.88;;;22.50;58.70;;;;;;5062533;28;20135;-90
2022/07/15 10:32:07;;;;;;;8.38;1.10;;;22.60;57.70;;;;;;5041004;28;20034;-89
2022/07/15 10:34:35;;;;;;;2.75;1.00;;;22.60;58.10;;;;;;5045534;28;20023;-89
2022/07/15 10:37:12;;;;;;;1.63;0.70;;;22.60;57.80;;;;;;5032327;28;20021;-89
2022/07/15 10:40:00;;;;;;;4.45;0.88;;;22.60;58.20;;;;;;5030442;28;20029;-88
2022/07/15 10:42:26;;;;;;;2.33;0.70;;;22.70;57.90;;;;;;5055747;28;20075;-89
2022/07/15 10:44:58;;;;;;;1.67;0.82;;;22.70;58.30;;;;;;5054247;28;20020;-88
2022/07/15 10:47:24;;;;;;;4.75;0.90;;;22.70;58.00;;;;;;5032179;28;20029;-88
2022/07/15 10:49:51;;;;;;;3.80;0.90;;;22.70;57.70;;;;;;5032486;28;20032;-89
2022/07/15 10:52:19;;;;;;;3.45;0.98;;;22.80;57.60;;;;;;5033369;28;20040;-89
2022/07/15 10:54:55;;;;;;;2.33;0.90;;;22.70;57.70;;;;;;5025888;28;20417;-89
2022/07/15 10:57:39;;;;;;;2.08;1.08;;;22.80;57.40;;;;;;5045598;28;20037;-88
2022/07/15 11:00:24;;;;;;;3.25;0.70;;;22.80;57.20;;;;;;5032870;28;20474;-88
2022/07/15 11:03:07;;;;;;;1.50;1.00;;;22.80;57.40;;;;;;5054074;28;20032;-90
2022/07/15 11:05:33;;;;;;;5.65;1.08;;;22.90;58.10;;;;;;5038815;28;20032;-88
2022/07/15 11:08:00;;;;;;;4.88;1.10;;;23.00;57.30;;;;;;5055864;28;20517;-88
2022/07/15 11:10:25;;;;;;;5.72;0.80;;;22.90;57.30;;;;;;5038530;28;20385;-88
2022/07/15 11:12:51;;;;;;;2.95;1.02;;;23.00;57.90;;;;;;5053471;28;20469;-89
2022/07/15 11:15:19;;;;;;;4.28;1.20;;;23.00;58.10;;;;;;5058961;28;20441;-89
2022/07/15 11:17:47;;;;;;;3.20;0.82;;;23.10;58.10;;;;;;5058787;28;20457;-88
2022/07/15 11:20:17;;;;;;;1.40;0.77;;;23.10;58.20;;;;;;5046343;28;20038;-88
2022/07/15 11:22:48;;;;;;;3.07;0.93;;;23.20;58.30;;;;;;5026848;28;20025;-88
2022/07/15 11:25:26;;;;;;;3.38;1.17;;;23.20;57.00;;;;;;5054065;28;20021;-89
2022/07/15 11:28:01;;;;;;;1.83;0.82;;;23.20;57.40;;;;;;5055003;28;20034;-90
2022/07/15 11:30:29;;;;;;;2.05;1.08;;;23.30;57.00;;;;;;5049628;28;20056;-89
2022/07/15 11:32:59;;;;;;;3.70;1.05;;;23.30;57.10;;;;;;5047538;28;20063;-89
2022/07/15 11:35:26;;;;;;;2.95;0.85;;;23.40;56.80;;;;;;5052632;28;20105;-89
2022/07/15 11:38:00;;;;;;;3.28;1.15;;;23.40;57.20;;;;;;5044161;28;20029;-91
2022/07/15 11:46:04;;;;;;;4.67;1.03;;;23.50;56.40;;;;;;5052549;28;20024;-89
2022/07/15 11:48:37;;;;;;;3.60;1.02;;;23.60;56.60;;;;;;5021972;28;20498;-89
2022/07/15 11:51:04;;;;;;;1.35;1.00;;;23.60;56.50;;;;;;5038738;28;20043;-91
2022/07/15 11:53:36;;;;;;;2.03;1.00;;;23.60;56.80;;;;;;5020974;28;20021;-88
2022/07/15 11:56:02;;;;;;;5.57;1.20;;;23.60;56.30;;;;;;5029063;28;20027;-89
2022/07/15 11:58:29;;;;;;;1.58;0.88;;;23.80;57.00;;;;;;5047218;28;20037;-89
2022/07/15 12:00:55;;;;;;;2.22;1.00;;;23.80;56.10;;;;;;5030378;28;20025;-90
2022/07/15 12:03:20;;;;;;;5.05;1.02;;;23.90;56.80;;;;;;5032407;28;20021;-90
2022/07/15 12:06:00;;;;;;;2.60;0.90;;;24.00;56.20;;;;;;5027933;28;20047;-91
2022/07/15 12:08:37;;;;;;;4.25;0.90;;;24.00;55.10;;;;;;5037248;28;20029;-91
2022/07/15 12:11:09;;;;;;;3.55;1.00;;;24.10;55.60;;;;;;5040665;28;20142;-90
2022/07/15 12:13:55;;;;;;;1.98;1.10;;;24.20;55.40;;;;;;5037987;28;20036;-90
2022/07/15 12:16:32;;;;;;;1.85;0.80;;;24.30;54.70;;;;;;5042964;28;20068;-90
2022/07/15 12:19:20;;;;;;;3.60;1.15;;;24.30;54.60;;;;;;5052830;28;20021;-89
2022/07/15 12:21:48;;;;;;;2.67;0.85;;;24.40;54.30;;;;;;5051990;28;20140;-92
2022/07/15 12:24:18;;;;;;;3.90;1.00;;;24.50;54.60;;;;;;5053705;28;20133;-89
2022/07/15 12:26:50;;;;;;;2.97;1.10;;;24.60;54.50;;;;;;5052633;28;20028;-89
2022/07/15 12:29:25;;;;;;;3.38;1.90;;;24.70;54.10;;;;;;5051079;28;20033;-88
2022/07/15 12:32:02;;;;;;;3.00;1.23;;;24.70;54.70;;;;;;5063935;28;20027;-91
2022/07/15 12:34:46;;;;;;;6.07;1.17;;;24.80;53.30;;;;;;5066027;28;20161;-89
2022/07/15 12:37:38;;;;;;;3.05;1.52;;;24.90;53.10;;;;;;5038838;28;20025;-88
2022/07/15 12:40:03;;;;;;;;;;;24.90;53.70;;;;;;5073323;28;20032;-90
2022/07/15 12:42:31;;;;;;;1.23;0.80;;;24.90;53.70;;;;;;5053267;28;19916;-89
2022/07/15 12:45:12;;;;;;;2.97;1.02;;;24.80;53.70;;;;;;5051628;28;20024;-89
2022/07/15 12:48:04;;;;;;;3.97;1.08;;;24.80;53.90;;;;;;5046695;28;20021;-89
2022/07/15 12:50:33;;;;;;;4.25;1.40;;;24.80;53.90;;;;;;5053097;28;20032;-89
2022/07/15 12:53:00;;;;;;;3.60;1.10;;;24.70;53.60;;;;;;5050569;28;20021;-89
2022/07/15 12:55:40;;;;;;;3.63;0.88;;;24.80;53.80;;;;;;5045414;28;20021;-89
2022/07/15 12:58:08;;;;;;;2.25;1.10;;;24.90;53.50;;;;;;5052724;28;20102;-89
2022/07/15 13:00:34;;;;;;;2.80;1.08;;;25.00;53.20;;;;;;5056089;28;20024;-89
2022/07/15 13:03:15;;;;;;;4.15;0.93;;;25.30;53.60;;;;;;5055943;28;20020;-89
2022/07/15 13:05:49;;;;;;;2.03;1.00;;;25.40;52.50;;;;;;5073982;28;20021;-88
2022/07/15 13:08:15;;;;;;;6.72;1.08;;;25.50;52.30;;;;;;5073931;28;20115;-89
2022/07/15 13:10:44;;;;;;;2.40;0.82;;;25.60;51.80;;;;;;5053167;28;20033;-89
2022/07/15 13:13:12;;;;;;;1.60;0.90;;;25.70;51.30;;;;;;5050542;28;20024;-89